Time;durP1;ratioP1;P1;durP2;ratioP2;P2;SDS_P1;SDS_P2;PMS_P1;PMS_P2;Temp;Humidity;BMP_temperature;BMP_pressure;BME280_temperature;BME280_humidity;BME280_pressure;Samples;Min_cycle;Max_cycle;Signal;HPM_P1;HPM_P2
2022/06/17 05:38:58;;;;;;;9.18;8.18;;;;;;;13.42;100.00;98095.39;1870256;76;22712;-61
2022/06/17 05:41:26;;;;;;;6.87;5.28;;;;;;;13.38;100.00;98097.63;1816285;78;20931;-67
2022/06/17 05:43:55;;;;;;;6.00;4.40;;;;;;;13.41;100.00;98091.09;1777391;78;21896;-58
2022/06/17 05:46:27;;;;;;;4.40;3.95;;;;;;;13.46;100.00;98093.67;1787755;80;20993;-61
2022/06/17 05:49:10;;;;;;;5.28;3.58;;;;;;;13.52;100.00;98088.39;1691862;83;21104;-60
2022/06/17 05:51:45;;;;;;;6.20;3.92;;;;;;;13.64;100.00;98089.19;1721520;83;20938;-64
2022/06/17 05:54:25;;;;;;;9.00;4.15;;;;;;;13.76;100.00;98085.38;1774330;79;21544;-63
2022/06/17 05:57:01;;;;;;;7.05;5.35;;;;;;;13.89;100.00;98086.41;1766108;80;21176;-64
2022/06/17 05:59:28;;;;;;;6.92;5.30;;;;;;;14.03;100.00;98097.89;1777177;79;20991;-63
2022/06/17 06:02:00;;;;;;;7.12;4.22;;;;;;;14.11;100.00;98096.57;1772083;79;21455;-61
2022/06/17 06:04:49;;;;;;;6.28;3.60;;;;;;;14.21;100.00;98100.89;1755563;80;21067;-59
2022/06/17 06:07:23;;;;;;;4.30;3.30;;;;;;;14.28;100.00;98102.59;1767434;80;21098;-69
2022/06/17 06:09:52;;;;;;;3.90;2.90;;;;;;;14.36;100.00;98109.95;1757925;80;22031;-58
2022/06/17 06:12:20;;;;;;;4.00;2.98;;;;;;;14.44;100.00;98111.86;1765870;80;20962;-60
2022/06/17 06:14:48;;;;;;;3.87;3.42;;;;;;;14.52;100.00;98113.81;1737865;81;21591;-64
2022/06/17 06:17:15;;;;;;;4.22;3.30;;;;;;;14.54;100.00;98115.63;1767834;81;21065;-66
2022/06/17 06:19:42;;;;;;;6.72;3.15;;;;;;;14.55;100.00;98123.17;1768359;81;21079;-63
2022/06/17 06:22:09;;;;;;;3.37;2.72;;;;;;;14.56;100.00;98121.50;1766392;80;21115;-58
2022/06/17 06:24:37;;;;;;;3.30;2.80;;;;;;;14.59;100.00;98120.89;1758856;80;20964;-65
2022/06/17 06:27:04;;;;;;;4.05;3.08;;;;;;;14.58;100.00;98123.33;1776463;80;22306;-58
2022/06/17 06:29:35;;;;;;;3.35;3.05;;;;;;;14.56;100.00;98118.80;1772024;80;21136;-63
2022/06/17 06:34:43;;;;;;;3.67;2.92;;;;;;;14.62;100.00;98120.27;1859916;76;22626;-65
2022/06/17 06:37:12;;;;;;;4.90;3.20;;;;;;;14.60;100.00;98122.45;1822658;78;20936;-61
2022/06/17 06:39:41;;;;;;;4.37;3.52;;;;;;;14.56;100.00;98126.89;1812775;77;21111;-62
2022/06/17 06:42:09;;;;;;;5.25;2.92;;;;;;;14.53;100.00;98123.46;1826553;77;20943;-60
2022/06/17 06:44:38;;;;;;;3.72;2.75;;;;;;;14.48;100.00;98120.94;1825146;78;20926;-64
2022/06/17 06:47:12;;;;;;;3.75;2.55;;;;;;;14.48;100.00;98118.24;1812444;77;21284;-57
2022/06/17 06:49:59;;;;;;;3.00;2.70;;;;;;;14.48;100.00;98119.59;1774344;80;20983;-60
2022/06/17 06:52:25;;;;;;;3.27;2.90;;;;;;;14.45;100.00;98118.86;1807007;78;23128;-62
2022/06/17 06:54:52;;;;;;;5.10;3.10;;;;;;;14.44;100.00;98128.03;1813189;78;21498;-59
2022/06/17 06:57:19;;;;;;;7.00;2.70;;;;;;;14.44;100.00;98127.27;1805220;78;21102;-61
2022/06/17 06:59:47;;;;;;;3.25;2.95;;;;;;;14.42;100.00;98119.47;1755447;80;21058;-66
2022/06/17 07:02:14;;;;;;;2.90;2.60;;;;;;;14.41;100.00;98120.59;1743152;82;21114;-60
2022/06/17 07:04:41;;;;;;;3.40;2.75;;;;;;;14.44;100.00;98122.64;1768037;80;21742;-64
2022/06/17 07:07:11;;;;;;;3.20;2.80;;;;;;;14.45;100.00;98116.16;1758712;79;21337;-66
2022/06/17 07:09:38;;;;;;;3.50;2.67;;;;;;;14.45;99.99;98116.16;1771427;79;21096;-64
2022/06/17 07:12:25;;;;;;;2.55;2.35;;;;;;;14.43;99.83;98119.73;1771881;79;20993;-60
2022/06/17 07:15:08;;;;;;;4.28;2.70;;;;;;;14.43;99.69;98121.07;1769666;79;21358;-58
2022/06/17 07:18:05;;;;;;;3.62;2.87;;;;;;;14.38;99.66;98120.66;1763159;79;21130;-63
2022/06/17 07:20:42;;;;;;;4.33;3.10;;;;;;;14.36;100.00;98120.73;1776799;79;20878;-64
2022/06/17 07:23:17;;;;;;;2.67;2.45;;;;;;;14.37;100.00;98122.30;1774862;79;20997;-62
2022/06/17 07:25:51;;;;;;;2.58;2.22;;;;;;;14.40;100.00;98125.73;1782669;79;21499;-61
2022/06/17 07:28:22;;;;;;;2.50;2.20;;;;;;;14.43;100.00;98123.77;1774487;79;21009;-60
2022/06/17 07:30:58;;;;;;;3.95;2.45;;;;;;;14.45;100.00;98129.64;1781972;79;21159;-63
2022/06/17 07:33:29;;;;;;;2.62;2.37;;;;;;;14.44;100.00;98128.03;1750056;80;20991;-60
2022/06/17 07:36:04;;;;;;;4.05;2.75;;;;;;;14.41;100.00;98132.72;1824593;77;20912;-62
2022/06/17 07:43:06;;;;;;;2.35;2.17;;;;;;;14.33;100.00;98132.92;1885297;76;25640;-63
2022/06/17 07:45:34;;;;;;;3.27;2.80;;;;;;;14.23;100.00;98141.23;1838504;76;20881;-69
2022/06/17 07:48:12;;;;;;;6.15;2.75;;;;;;;14.22;100.00;98144.25;1866962;76;21100;-65
2022/06/17 07:50:47;;;;;;;3.20;1.92;;;;;;;14.20;100.00;98141.84;1855389;77;21024;-58
2022/06/17 07:53:20;;;;;;;3.17;2.47;;;;;;;14.15;100.00;98142.00;1832252;77;21761;-68
2022/06/17 07:55:55;;;;;;;3.17;2.70;;;;;;;14.06;100.00;98143.83;1827683;77;21473;-59
2022/06/17 07:58:34;;;;;;;3.42;2.60;;;;;;;13.98;100.00;98152.67;1830126;77;21165;-65
2022/06/17 08:01:03;;;;;;;3.60;2.50;;;;;;;13.94;100.00;98154.95;1830086;77;21853;-65
2022/06/17 08:03:34;;;;;;;3.30;2.58;;;;;;;13.92;100.00;98155.81;1830703;77;20983;-67
2022/06/17 08:06:04;;;;;;;4.22;2.85;;;;;;;13.93;100.00;98154.69;1826178;77;21002;-66
2022/06/17 08:08:34;;;;;;;3.00;2.70;;;;;;;13.94;100.00;98164.37;1828877;77;21327;-70
2022/06/17 08:11:01;;;;;;;4.03;2.95;;;;;;;13.92;100.00;98161.20;1828435;76;21003;-60
2022/06/17 08:13:28;;;;;;;4.50;2.77;;;;;;;13.94;100.00;98161.68;1828620;77;21190;-70
2022/06/17 08:16:01;;;;;;;3.60;2.70;;;;;;;13.95;100.00;98164.59;1834559;77;20979;-66
2022/06/17 08:18:29;;;;;;;3.10;2.80;;;;;;;13.99;100.00;98167.72;1828935;77;21207;-69
2022/06/17 08:20:57;;;;;;;3.30;2.75;;;;;;;14.07;100.00;98167.53;1826667;77;21045;-62
2022/06/17 08:23:25;;;;;;;3.72;2.47;;;;;;;14.17;100.00;98163.23;1834570;77;21030;-61
2022/06/17 08:25:51;;;;;;;5.55;2.62;;;;;;;14.33;100.00;98165.25;1829720;77;21112;-64
2022/06/17 08:28:19;;;;;;;3.90;2.92;;;;;;;14.53;100.00;98165.23;1826063;77;21047;-68
2022/06/17 08:30:52;;;;;;;4.85;2.87;;;;;;;14.72;100.00;98171.76;1830612;77;20958;-73
2022/06/17 08:33:27;;;;;;;3.30;2.75;;;;;;;14.89;100.00;98173.94;1834880;77;21025;-63
2022/06/17 08:35:48;;;;;;;3.98;3.42;;;;;;;14.92;99.62;98172.52;1825195;77;21074;-63
2022/06/17 08:38:29;;;;;;;2.77;2.47;;;;;;;14.92;99.71;98176.02;1823654;77;21202;-65
2022/06/17 08:40:59;;;;;;;6.97;2.85;;;;;;;14.92;99.49;98175.22;1828489;77;21337;-63
2022/06/17 08:43:58;;;;;;;3.47;2.80;;;;;;;14.92;99.49;98173.87;1815766;77;20952;-58
2022/06/17 08:46:55;;;;;;;3.85;2.85;;;;;;;14.95;99.78;98176.75;1794857;77;21654;-60
2022/06/17 08:49:49;;;;;;;4.60;3.22;;;;;;;14.99;99.77;98180.95;1824408;77;21585;-65
2022/06/17 08:52:35;;;;;;;3.40;2.80;;;;;;;14.95;99.16;98184.84;1824829;77;21120;-61
2022/06/17 08:55:44;;;;;;;4.40;2.58;;;;;;;14.93;98.56;98186.25;1817577;77;20963;-66
2022/06/17 08:58:45;;;;;;;3.37;2.70;;;;;;;14.92;98.13;98181.41;1817623;77;20917;-71
2022/06/17 09:01:55;;;;;;;4.78;3.08;;;;;;;14.88;98.05;98189.89;1815412;77;21084;-62
2022/06/17 09:04:51;;;;;;;6.28;3.27;;;;;;;14.86;97.83;98189.39;1823460;77;21028;-65
2022/06/17 09:07:44;;;;;;;4.42;2.27;;;;;;;14.85;97.97;98189.16;1819220;77;21236;-70
2022/06/17 09:10:59;;;;;;;3.90;2.72;;;;;;;14.79;96.99;98185.00;1825894;77;20958;-62
2022/06/17 09:14:07;;;;;;;5.65;3.00;;;;;;;14.75;97.04;98188.09;1816144;77;21006;-70
2022/06/17 09:16:54;;;;;;;4.17;2.80;;;;;;;14.75;96.98;98189.98;1822424;77;21050;-65
2022/06/17 09:19:31;;;;;;;3.72;2.35;;;;;;;14.75;96.35;98189.44;1760091;80;21076;-67
2022/06/17 09:22:11;;;;;;;5.70;2.65;;;;;;;14.83;96.39;98185.19;1764784;80;21332;-60
2022/06/17 09:24:43;;;;;;;7.25;4.25;;;;;;;14.97;96.26;98185.31;1768481;80;21033;-67
2022/06/17 09:27:25;;;;;;;6.10;4.10;;;;;;;15.18;95.91;98190.11;1815466;77;21046;-64
2022/06/17 09:30:07;;;;;;;4.80;3.12;;;;;;;15.34;95.49;98183.14;1816165;77;21069;-62
2022/06/17 09:32:42;;;;;;;5.75;2.92;;;;;;;15.53;94.97;98186.36;1820539;77;21089;-58
2022/06/17 09:35:29;;;;;;;3.87;3.00;;;;;;;15.69;94.00;98191.52;1818796;77;21059;-62
2022/06/17 09:38:25;;;;;;;4.40;3.00;;;;;;;15.86;93.88;98192.88;1814924;77;21078;-61
2022/06/17 09:41:00;;;;;;;6.83;3.00;;;;;;;16.04;92.84;98190.95;1818621;77;21607;-65
2022/06/17 09:44:09;;;;;;;3.67;3.10;;;;;;;16.19;92.01;98184.48;1816121;77;21046;-58
2022/06/17 09:46:55;;;;;;;4.22;2.52;;;;;;;16.33;91.29;98179.67;1804992;77;21535;-60
2022/06/17 09:49:32;;;;;;;7.95;3.20;;;;;;;16.53;91.28;98182.27;1801621;77;21109;-66
2022/06/17 09:52:13;;;;;;;3.62;2.50;;;;;;;16.69;90.21;98183.86;1819051;77;21026;-59
2022/06/17 09:54:55;;;;;;;3.20;2.52;;;;;;;16.77;89.49;98186.52;1821220;77;20908;-65
2022/06/17 09:57:30;;;;;;;4.22;2.47;;;;;;;16.84;88.20;98192.80;1816415;77;21017;-66
2022/06/17 10:00:07;;;;;;;2.40;2.15;;;;;;;16.86;87.18;98187.85;1765107;79;21067;-68
2022/06/17 10:03:00;;;;;;;3.15;2.15;;;;;;;16.92;87.49;98183.83;1783938;79;21040;-56
2022/06/17 10:05:52;;;;;;;3.40;2.40;;;;;;;17.01;86.84;98190.78;1761407;80;20975;-56
2022/06/17 10:08:38;;;;;;;4.97;2.70;;;;;;;17.20;86.31;98186.30;1761439;79;20981;-60
2022/06/17 10:11:33;;;;;;;2.92;2.50;;;;;;;17.46;85.29;98182.84;1766137;80;21510;-62
2022/06/17 10:14:26;;;;;;;2.98;2.33;;;;;;;17.65;85.17;98184.56;1768960;79;20892;-57
2022/06/17 10:20:21;;;;;;;3.25;2.42;;;;;;;18.07;82.73;98187.20;1764525;79;21113;-63
2022/06/17 10:23:18;;;;;;;4.28;2.42;;;;;;;18.32;82.96;98184.81;1777205;79;20973;-60
2022/06/17 10:26:03;;;;;;;4.78;2.20;;;;;;;18.58;81.23;98189.98;1743857;80;21502;-62
2022/06/17 10:29:02;;;;;;;3.83;2.40;;;;;;;18.85;79.17;98189.31;1751384;80;21075;-66
2022/06/17 10:31:38;;;;;;;2.92;2.10;;;;;;;19.04;79.08;98187.62;1765117;80;21755;-60
2022/06/17 10:34:29;;;;;;;2.55;2.35;;;;;;;19.27;77.83;98192.55;1774142;79;21017;-60
2022/06/17 10:36:59;;;;;;;6.22;2.15;;;;;;;19.46;77.39;98193.58;1788202;79;20968;-62
2022/06/17 10:39:28;;;;;;;4.80;2.20;;;;;;;19.63;76.04;98197.95;1776193;79;21033;-60
2022/06/17 10:41:57;;;;;;;2.58;1.80;;;;;;;19.74;74.20;98197.69;1780814;79;21074;-60
2022/06/17 10:44:26;;;;;;;2.47;1.70;;;;;;;19.80;73.13;98188.17;1782869;79;21269;-68
2022/06/17 10:47:00;;;;;;;2.55;1.65;;;;;;;19.89;71.54;98190.17;1778451;79;20925;-62
2022/06/17 10:49:35;;;;;;;2.52;1.80;;;;;;;19.97;70.72;98183.81;1820923;77;21067;-64
2022/06/17 10:52:09;;;;;;;2.62;1.98;;;;;;;20.03;69.32;98185.70;1831201;77;20948;-65
2022/06/17 10:54:39;;;;;;;4.22;2.02;;;;;;;19.91;70.09;98187.89;1824897;77;21593;-60
2022/06/17 10:57:11;;;;;;;3.67;2.08;;;;;;;19.86;71.39;98188.14;1809164;77;21141;-63
2022/06/17 10:59:41;;;;;;;3.05;1.80;;;;;;;19.87;70.84;98178.86;1827476;77;21461;-64
2022/06/17 11:02:27;;;;;;;2.30;2.10;;;;;;;19.93;68.76;98177.47;1824975;77;20998;-60
2022/06/17 11:05:06;;;;;;;2.33;1.90;;;;;;;19.94;70.33;98180.42;1823244;77;21074;-63
2022/06/17 11:07:51;;;;;;;1.90;1.70;;;;;;;19.93;70.34;98165.23;1830772;77;21033;-62
2022/06/17 11:10:26;;;;;;;4.62;1.87;;;;;;;20.02;70.87;98164.50;1830173;77;21208;-63
2022/06/17 11:13:02;;;;;;;6.00;2.00;;;;;;;20.04;70.13;98165.53;1825853;77;20931;-66
2022/06/17 11:15:47;;;;;;;3.10;1.90;;;;;;;19.85;68.41;98171.63;1827395;77;20920;-61
2022/06/17 11:18:19;;;;;;;4.72;2.35;;;;;;;19.62;67.97;98171.91;1817905;77;21062;-60
2022/06/17 11:21:04;;;;;;;2.65;2.17;;;;;;;19.42;68.32;98170.17;1825281;77;21402;-64
2022/06/17 11:23:44;;;;;;;3.17;2.00;;;;;;;19.32;69.62;98171.95;1832210;77;21091;-60
2022/06/17 11:26:24;;;;;;;2.62;2.17;;;;;;;19.32;70.50;98181.47;1824511;77;21012;-62
2022/06/17 11:28:55;;;;;;;2.47;2.08;;;;;;;19.27;70.63;98194.72;1826965;77;21564;-59
2022/06/17 11:31:32;;;;;;;2.72;2.33;;;;;;;19.23;70.34;98188.95;1846669;77;20899;-65
2022/06/17 11:34:21;;;;;;;4.05;2.00;;;;;;;19.13;70.42;98184.22;1829691;77;21021;-60
2022/06/17 11:37:18;;;;;;;7.45;2.40;;;;;;;19.01;69.58;98180.15;1780488;77;21218;-60
2022/06/17 11:39:49;;;;;;;5.55;2.12;;;;;;;18.93;70.00;98182.43;1833403;77;21030;-66
2022/06/17 11:42:19;;;;;;;2.65;1.98;;;;;;;18.90;71.10;98192.59;1780273;78;20976;-59
2022/06/17 11:45:01;;;;;;;4.83;2.25;;;;;;;18.99;71.73;98196.55;1814549;78;20973;-58
2022/06/17 11:47:32;;;;;;;2.35;2.10;;;;;;;19.01;70.98;98203.22;1817338;78;21316;-66
2022/06/17 11:50:02;;;;;;;7.12;2.17;;;;;;;18.95;70.78;98203.23;1817206;78;21185;-58
2022/06/17 11:52:33;;;;;;;4.85;2.62;;;;;;;18.80;70.00;98203.89;1808262;78;21016;-64
2022/06/17 11:55:00;;;;;;;6.30;2.67;;;;;;;18.58;71.14;98198.11;1807065;78;20988;-65
2022/06/17 11:57:32;;;;;;;4.58;2.47;;;;;;;18.37;72.02;98198.16;1813870;78;21041;-58
2022/06/17 12:00:23;;;;;;;3.67;2.02;;;;;;;18.24;72.36;98199.24;1811529;78;21040;-62
2022/06/17 12:03:02;;;;;;;4.95;2.70;;;;;;;18.18;72.50;98192.46;1809361;78;21019;-60
2022/06/17 12:05:31;;;;;;;5.33;2.45;;;;;;;18.16;73.01;98185.23;1824846;78;21388;-59
2022/06/17 12:08:27;;;;;;;3.35;2.58;;;;;;;18.14;73.55;98191.52;1796019;79;20942;-63
2022/06/17 12:11:01;;;;;;;4.25;2.77;;;;;;;18.05;74.50;98193.53;1813434;78;21005;-64
2022/06/17 12:13:48;;;;;;;5.70;2.72;;;;;;;17.95;74.54;98192.58;1817195;78;26531;-65
2022/06/17 12:16:33;;;;;;;5.28;3.08;;;;;;;17.91;75.17;98202.51;1817613;78;21283;-60
2022/06/17 12:18:59;;;;;;;3.40;2.62;;;;;;;17.85;75.96;98199.78;1787054;78;20904;-61
2022/06/17 12:21:58;;;;;;;6.10;2.87;;;;;;;17.83;76.80;98208.23;1811690;78;21450;-61
2022/06/17 12:25:05;;;;;;;4.25;3.20;;;;;;;17.82;77.17;98201.80;1808849;78;21492;-60
2022/06/17 12:27:43;;;;;;;3.47;2.90;;;;;;;17.65;77.33;98199.46;1807294;78;20922;-59
2022/06/17 12:30:17;;;;;;;4.17;2.60;;;;;;;17.49;77.50;98201.16;1815161;78;21127;-62
2022/06/17 12:33:01;;;;;;;3.47;3.02;;;;;;;17.42;78.54;98200.89;1806272;78;21014;-62
2022/06/17 12:35:51;;;;;;;4.00;2.47;;;;;;;17.47;79.28;98204.76;1806202;78;20955;-64
2022/06/17 12:38:45;;;;;;;3.83;3.15;;;;;;;17.52;79.55;98192.38;1796812;78;21009;-63
2022/06/17 12:41:43;;;;;;;3.62;2.45;;;;;;;17.65;80.32;98191.89;1750645;81;20943;-64
2022/06/17 12:44:21;;;;;;;3.17;2.65;;;;;;;17.84;80.51;98188.15;1764842;81;21157;-58
2022/06/17 12:47:09;;;;;;;3.42;2.52;;;;;;;18.13;80.55;98183.98;1838835;77;21497;-61
2022/06/17 12:55:45;;;;;;;2.20;1.92;;;;;;;18.80;76.03;98176.76;1827917;77;21059;-65
2022/06/17 12:58:46;;;;;;;2.72;1.98;;;;;;;19.12;73.15;98173.12;1809518;77;21135;-59
2022/06/17 13:01:20;;;;;;;3.35;1.87;;;;;;;19.72;72.64;98164.64;1787736;77;20943;-61
2022/06/17 13:03:52;;;;;;;2.33;1.80;;;;;;;20.28;71.09;98151.81;1814178;78;20956;-63
2022/06/17 13:06:34;;;;;;;1.42;1.32;;;;;;;20.60;69.50;98154.00;1815743;78;21400;-62
2022/06/17 13:09:06;;;;;;;2.35;1.60;;;;;;;20.78;68.08;98157.94;1815875;79;20876;-59
2022/06/17 13:12:07;;;;;;;1.82;1.20;;;;;;;20.64;64.74;98163.03;1815965;78;21377;-58
2022/06/17 13:15:04;;;;;;;1.90;1.17;;;;;;;20.30;64.12;98167.24;1815863;78;20967;-62
2022/06/17 13:18:08;;;;;;;1.82;1.30;;;;;;;20.24;65.29;98163.98;1816097;79;20826;-60
2022/06/17 13:20:50;;;;;;;2.10;1.30;;;;;;;20.52;65.10;98156.31;1816459;79;20989;-64
2022/06/17 13:23:40;;;;;;;2.60;1.40;;;;;;;20.54;64.41;98150.74;1815848;79;20924;-60
2022/06/17 13:26:23;;;;;;;2.95;1.57;;;;;;;20.42;64.94;98146.17;1816057;79;21837;-60
2022/06/17 13:29:09;;;;;;;2.62;1.62;;;;;;;20.26;64.62;98146.73;1815337;79;20907;-58
2022/06/17 13:31:48;;;;;;;4.47;1.80;;;;;;;20.26;64.02;98141.86;1815931;79;20916;-61
2022/06/17 13:34:33;;;;;;;1.60;1.45;;;;;;;20.55;64.32;98139.30;1815826;79;21443;-63
2022/06/17 13:37:18;;;;;;;2.35;1.60;;;;;;;21.00;64.26;98139.04;1816267;79;21341;-61
2022/06/17 13:40:02;;;;;;;2.25;1.52;;;;;;;21.42;60.91;98139.22;1815827;79;21121;-66
2022/06/17 13:42:29;;;;;;;3.22;1.40;;;;;;;21.81;60.36;98142.72;1815508;78;20924;-61
2022/06/17 13:45:07;;;;;;;2.62;1.30;;;;;;;22.05;59.29;98137.56;1777114;79;20908;-62
2022/06/17 13:47:40;;;;;;;2.15;1.10;;;;;;;22.07;57.31;98140.14;1815509;78;20995;-66
2022/06/17 13:50:37;;;;;;;1.45;1.25;;;;;;;22.21;57.38;98149.19;1811410;78;20916;-64
2022/06/17 13:53:45;;;;;;;4.00;1.30;;;;;;;22.49;55.59;98142.86;1815829;79;21107;-59
2022/06/17 13:56:27;;;;;;;2.12;1.10;;;;;;;22.69;55.76;98147.69;1815866;79;20872;-64
2022/06/17 13:59:03;;;;;;;1.30;0.90;;;;;;;22.95;55.29;98149.87;1808720;79;20907;-60
2022/06/17 14:01:36;;;;;;;1.20;0.90;;;;;;;23.33;53.83;98150.80;1815929;78;21424;-66
2022/06/17 14:04:07;;;;;;;1.82;1.15;;;;;;;23.63;52.06;98148.31;1815602;78;21396;-62
2022/06/17 14:06:54;;;;;;;1.20;0.90;;;;;;;23.72;50.83;98145.28;1815637;78;22075;-63
2022/06/17 14:09:38;;;;;;;2.30;1.30;;;;;;;23.69;51.97;98141.95;1815740;79;20856;-61
2022/06/17 14:12:08;;;;;;;2.22;1.00;;;;;;;23.59;53.21;98137.92;1804146;79;20924;-60
2022/06/17 14:14:37;;;;;;;1.20;1.02;;;;;;;23.40;52.52;98136.70;1800919;79;20963;-62
2022/06/17 14:17:21;;;;;;;2.62;1.07;;;;;;;23.17;52.33;98139.27;1815813;79;20907;-66
2022/06/17 14:19:57;;;;;;;1.45;1.10;;;;;;;23.03;52.99;98150.78;1816034;78;21014;-64
2022/06/17 14:22:37;;;;;;;;;;;;;;;22.98;52.44;98146.42;1818416;79;20865;-63
2022/06/17 14:25:16;;;;;;;2.85;1.20;;;;;;;23.10;53.08;98146.18;1815833;79;20171;-60
2022/06/17 14:27:50;;;;;;;2.60;1.20;;;;;;;23.30;52.86;98152.33;1808136;79;21004;-66
2022/06/17 14:30:27;;;;;;;1.62;1.05;;;;;;;23.43;50.92;98148.83;1815869;78;20965;-66
2022/06/17 14:32:54;;;;;;;3.50;1.30;;;;;;;23.56;52.23;98150.16;1808336;78;21085;-63
2022/06/17 14:35:32;;;;;;;2.33;1.20;;;;;;;23.87;51.68;98150.34;1815800;79;20908;-63
2022/06/17 14:38:25;;;;;;;2.70;1.10;;;;;;;24.18;50.94;98148.01;1815783;78;20892;-69
2022/06/17 14:44:02;;;;;;;3.20;1.40;;;;;;;24.81;48.20;98141.55;1821209;78;20971;-66
2022/06/17 14:46:29;;;;;;;2.60;1.17;;;;;;;24.98;47.25;98149.13;1825141;78;21104;-66
2022/06/17 14:49:47;;;;;;;1.67;1.00;;;;;;;25.14;46.58;98146.88;1824172;78;20928;-61
2022/06/17 14:52:26;;;;;;;2.90;1.30;;;;;;;25.20;47.16;98148.11;1827316;78;20904;-73
2022/06/17 14:55:16;;;;;;;2.40;1.32;;;;;;;25.31;46.07;98154.44;1827544;78;20856;-60
2022/06/17 14:58:04;;;;;;;2.20;1.15;;;;;;;25.32;46.94;98154.62;1827311;78;20913;-67
2022/06/17 15:00:42;;;;;;;2.52;1.37;;;;;;;25.52;47.48;98157.32;1821097;78;21107;-67
2022/06/17 15:03:22;;;;;;;2.08;1.25;;;;;;;25.65;47.10;98161.29;1821956;78;20966;-73
2022/06/17 15:05:50;;;;;;;2.75;1.10;;;;;;;25.55;46.66;98159.30;1827765;78;20896;-68
2022/06/17 15:08:26;;;;;;;1.52;1.10;;;;;;;25.56;46.37;98156.74;1827439;78;21466;-64
2022/06/17 15:11:20;;;;;;;5.67;1.40;;;;;;;25.78;46.79;98162.54;1827147;78;21002;-63
2022/06/17 15:14:17;;;;;;;3.00;1.10;;;;;;;26.01;45.80;98159.47;1827411;78;21295;-71
2022/06/17 15:16:52;;;;;;;1.65;0.98;;;;;;;26.09;44.36;98164.41;1827196;78;20920;-63
2022/06/17 15:19:36;;;;;;;1.47;1.10;;;;;;;25.94;44.87;98159.45;1827545;78;21478;-72
2022/06/17 15:22:20;;;;;;;3.98;1.15;;;;;;;25.84;44.72;98167.05;1827246;78;20927;-66
2022/06/17 15:25:20;;;;;;;2.22;1.15;;;;;;;25.50;44.13;98167.89;1820633;78;21336;-70
2022/06/17 15:28:04;;;;;;;1.07;0.90;;;;;;;24.91;45.14;98170.41;1827295;78;21112;-70
2022/06/17 15:30:35;;;;;;;1.87;1.00;;;;;;;24.53;46.41;98175.52;1821350;78;20923;-63
2022/06/17 15:33:09;;;;;;;5.97;1.07;;;;;;;24.31;46.72;98171.20;1826873;78;20876;-64
2022/06/17 15:35:36;;;;;;;1.62;1.00;;;;;;;24.13;47.25;98175.70;1827351;78;20924;-64
2022/06/17 15:38:34;;;;;;;3.72;1.20;;;;;;;24.01;47.93;98184.70;1827301;78;20892;-63
2022/06/17 15:41:22;;;;;;;1.65;0.90;;;;;;;23.86;48.28;98185.11;1827275;78;21239;-65
2022/06/17 15:44:03;;;;;;;1.25;0.93;;;;;;;23.43;47.61;98178.33;1823944;78;20963;-68
2022/06/17 15:46:34;;;;;;;1.75;1.20;;;;;;;22.94;49.08;98177.56;1815847;78;20892;-64
2022/06/17 15:49:15;;;;;;;1.30;1.15;;;;;;;22.53;51.08;98181.91;1815838;78;20912;-68
2022/06/17 15:51:47;;;;;;;2.45;1.37;;;;;;;22.27;52.05;98187.28;1815891;78;20861;-67
2022/06/17 15:54:16;;;;;;;4.78;1.20;;;;;;;22.02;52.75;98186.03;1815731;78;21068;-64
2022/06/17 15:56:46;;;;;;;1.47;1.00;;;;;;;21.73;53.04;98182.70;1815369;78;20893;-66
2022/06/17 15:59:25;;;;;;;4.42;1.25;;;;;;;21.49;53.59;98191.14;1816116;78;21424;-64
2022/06/17 16:02:03;;;;;;;1.62;1.10;;;;;;;21.27;54.67;98193.75;1815871;78;20880;-61
2022/06/17 16:04:37;;;;;;;2.67;1.15;;;;;;;20.98;55.74;98186.83;1814437;78;21047;-72
2022/06/17 16:07:18;;;;;;;1.98;1.30;;;;;;;20.80;55.83;98197.84;1817270;78;21880;-71
2022/06/17 16:09:49;;;;;;;1.72;1.40;;;;;;;20.63;56.43;98200.37;1815829;79;20979;-67
2022/06/17 16:12:44;;;;;;;2.25;1.50;;;;;;;20.47;57.08;98200.89;1815972;79;20948;-64
2022/06/17 16:15:33;;;;;;;2.65;1.37;;;;;;;20.33;57.24;98204.60;1815956;79;20852;-67
2022/06/17 16:18:31;;;;;;;2.15;1.57;;;;;;;20.15;58.02;98202.75;1815912;79;20904;-65
2022/06/17 16:20:58;;;;;;;2.52;1.70;;;;;;;20.01;59.21;98196.13;1815990;78;21482;-62
2022/06/17 16:23:39;;;;;;;2.20;1.55;;;;;;;19.89;60.16;98198.33;1815833;78;20959;-62
2022/06/17 16:26:14;;;;;;;2.92;1.77;;;;;;;19.83;60.65;98200.28;1815722;78;20876;-70
2022/06/17 16:28:41;;;;;;;4.05;2.02;;;;;;;19.70;61.31;98204.95;1817076;79;20841;-70
2022/06/17 16:31:18;;;;;;;5.60;2.25;;;;;;;19.64;60.86;98207.11;1816123;79;21513;-67
2022/06/17 16:33:48;;;;;;;3.90;2.05;;;;;;;19.58;61.27;98214.49;1815642;78;21109;-62
2022/06/17 16:36:15;;;;;;;4.00;1.92;;;;;;;19.50;61.46;98215.44;1815906;78;21010;-65
2022/06/17 16:38:56;;;;;;;8.38;2.12;;;;;;;19.41;62.11;98210.11;1805079;79;21457;-71
2022/06/17 16:44:35;;;;;;;3.33;1.90;;;;;;;19.22;63.12;98213.18;1820435;78;20907;-63
2022/06/17 16:47:06;;;;;;;5.90;2.00;;;;;;;19.12;63.33;98214.43;1827430;78;21227;-67
2022/06/17 16:49:36;;;;;;;3.60;2.05;;;;;;;19.04;63.90;98217.48;1827738;78;20900;-64
2022/06/17 16:52:06;;;;;;;3.52;2.00;;;;;;;18.98;65.17;98221.53;1827386;78;20907;-62
2022/06/17 16:54:36;;;;;;;3.55;1.82;;;;;;;18.91;65.73;98219.95;1827792;78;20923;-62
2022/06/17 16:57:07;;;;;;;3.25;1.90;;;;;;;18.87;66.25;98220.41;1827422;78;20841;-63
2022/06/17 16:59:33;;;;;;;3.17;1.80;;;;;;;18.87;66.97;98220.97;1825208;78;21120;-63
2022/06/17 17:02:00;;;;;;;6.05;2.08;;;;;;;18.86;67.12;98229.70;1827305;78;21380;-64
2022/06/17 17:04:28;;;;;;;2.85;1.60;;;;;;;18.85;67.55;98225.38;1827446;78;20944;-72
2022/06/17 17:06:56;;;;;;;5.70;1.90;;;;;;;18.79;67.98;98228.66;1827447;78;20931;-66
2022/06/17 17:09:22;;;;;;;1.90;1.67;;;;;;;18.70;68.39;98220.61;1807827;78;20932;-62
2022/06/17 17:11:50;;;;;;;2.83;1.62;;;;;;;18.63;68.73;98223.08;1827377;78;21104;-63
2022/06/17 17:14:16;;;;;;;2.33;1.95;;;;;;;18.56;68.93;98221.48;1827584;78;20995;-72
2022/06/17 17:16:44;;;;;;;2.58;1.70;;;;;;;18.41;70.45;98218.05;1827528;78;21359;-64
2022/06/17 17:19:12;;;;;;;1.90;1.45;;;;;;;18.27;70.94;98221.62;1827690;78;21383;-64
2022/06/17 17:24:17;;;;;;;3.22;1.77;;;;;;;18.08;71.60;98228.91;1827566;78;21173;-70
2022/06/17 17:26:45;;;;;;;2.92;1.90;;;;;;;18.03;72.18;98231.81;1827725;78;20848;-71
2022/06/17 17:29:13;;;;;;;7.00;1.82;;;;;;;17.96;72.64;98229.41;1827490;78;20829;-69
2022/06/17 17:31:40;;;;;;;5.47;1.62;;;;;;;17.93;73.18;98230.06;1827668;78;21378;-66
2022/06/17 17:34:07;;;;;;;3.47;1.80;;;;;;;17.84;73.41;98229.34;1827452;78;20919;-61
2022/06/17 17:36:35;;;;;;;1.95;1.50;;;;;;;17.78;74.11;98226.63;1827359;78;21246;-60
2022/06/17 17:39:01;;;;;;;2.83;1.52;;;;;;;17.65;74.60;98237.94;1827503;78;20972;-71
2022/06/17 17:41:31;;;;;;;3.52;1.57;;;;;;;17.49;75.04;98235.56;1827432;78;20908;-71
2022/06/17 17:44:03;;;;;;;2.83;1.80;;;;;;;17.34;75.82;98234.21;1826398;78;20928;-69
2022/06/17 17:46:32;;;;;;;4.80;2.40;;;;;;;17.19;76.45;98244.27;1815859;79;21412;-67
2022/06/17 17:48:59;;;;;;;5.17;2.30;;;;;;;17.02;77.24;98243.80;1815808;79;21087;-64
2022/06/17 17:51:26;;;;;;;6.87;3.00;;;;;;;16.85;77.85;98245.77;1815724;79;20904;-63
2022/06/17 17:53:53;;;;;;;2.95;1.90;;;;;;;16.73;78.41;98248.35;1815798;79;20889;-64
2022/06/17 17:56:20;;;;;;;3.02;1.72;;;;;;;16.63;79.21;98250.08;1815892;79;20911;-63
2022/06/17 17:58:47;;;;;;;2.98;1.75;;;;;;;16.52;79.84;98247.46;1815836;78;20940;-69
2022/06/17 18:01:27;;;;;;;3.15;1.47;;;;;;;16.42;80.39;98243.96;1816874;78;21104;-59
2022/06/17 18:03:54;;;;;;;2.87;1.52;;;;;;;16.35;80.62;98249.06;1816087;78;20809;-71
2022/06/17 18:06:24;;;;;;;3.33;2.00;;;;;;;16.30;80.90;98249.23;1816292;79;21415;-70
2022/06/17 18:08:51;;;;;;;2.87;1.85;;;;;;;16.22;81.21;98254.11;1816195;78;20899;-63
2022/06/17 18:11:20;;;;;;;3.35;1.98;;;;;;;16.13;81.58;98251.95;1816165;78;21415;-67
2022/06/17 18:13:49;;;;;;;6.12;1.67;;;;;;;16.05;82.19;98256.81;1815875;79;21186;-72
2022/06/17 18:16:16;;;;;;;3.95;1.82;;;;;;;15.98;82.79;98257.05;1815721;79;21509;-67
2022/06/17 18:18:43;;;;;;;3.98;2.10;;;;;;;15.91;83.19;98260.79;1815857;79;20853;-70
2022/06/17 18:21:13;;;;;;;4.30;2.33;;;;;;;15.83;83.65;98256.97;1815857;78;20880;-62
2022/06/17 18:23:40;;;;;;;6.85;2.25;;;;;;;15.76;84.02;98256.65;1815889;79;20872;-64